Wetterdaten: Woche 09.04.18 - 15.04.18 (KW15)
Datum Zeit Temperatur Luftfeuchte Luftdruck Niederschlag Windrichtung Sonnenschein Solar Wind
09.04.2018 00:00 10,6 C 67 % 1004,3 hPa 0,0 l/m N 0,00 h 0 W/m 0,0 km/h (0 Bft)
09.04.2018 01:00 9,5 C 70 % 1004,5 hPa 0,0 l/m N 0,00 h 0 W/m 0,0 km/h (0 Bft)
09.04.2018 02:00 8,5 C 72 % 1004,2 hPa 0,0 l/m N 0,00 h 0 W/m 0,0 km/h (0 Bft)
09.04.2018 03:00 8,0 C 74 % 1003,7 hPa 0,0 l/m N 0,00 h 0 W/m 0,0 km/h (0 Bft)
09.04.2018 04:00 7,8 C 75 % 1003,3 hPa 0,0 l/m N 0,00 h 0 W/m 0,0 km/h (0 Bft)
09.04.2018 05:00 7,8 C 76 % 1003,0 hPa 0,0 l/m N 0,00 h 0 W/m 0,1 km/h (0 Bft)
09.04.2018 06:00 7,6 C 77 % 1002,8 hPa 0,0 l/m N 0,00 h 5 W/m 0,0 km/h (0 Bft)
09.04.2018 07:00 7,4 C 78 % 1002,9 hPa 0,0 l/m O-SO 0,00 h 36 W/m 0,4 km/h (0 Bft)
09.04.2018 08:00 8,3 C 81 % 1002,7 hPa 0,0 l/m N 0,00 h 93 W/m 0,4 km/h (0 Bft)
09.04.2018 09:00 10,7 C 77 % 1002,4 hPa 0,0 l/m O 0,00 h 182 W/m 1,9 km/h (1 Bft)
09.04.2018 10:00 13,4 C 65 % 1002,0 hPa 0,0 l/m O 0,00 h 183 W/m 4,7 km/h (1 Bft)
09.04.2018 11:00 14,4 C 63 % 1001,9 hPa 0,0 l/m NO 0,00 h 214 W/m 3,9 km/h (1 Bft)
09.04.2018 12:00 14,7 C 70 % 1001,9 hPa 0,0 l/m NO 0,00 h 309 W/m 4,4 km/h (1 Bft)
09.04.2018 13:00 16,9 C 55 % 1001,7 hPa 0,0 l/m NO 0,83 h 521 W/m 2,8 km/h (1 Bft)
09.04.2018 14:00 18,3 C 52 % 1001,4 hPa 0,0 l/m N-NO 0,17 h 345 W/m 2,5 km/h (1 Bft)
09.04.2018 15:00 18,7 C 45 % 1001,1 hPa 0,0 l/m NW 0,17 h 333 W/m 3,1 km/h (1 Bft)
09.04.2018 16:00 18,1 C 54 % 1000,6 hPa 0,0 l/m NW 0,00 h 240 W/m 9,3 km/h (2 Bft)
09.04.2018 17:00 17,2 C 48 % 1000,7 hPa 0,0 l/m NW 0,00 h 118 W/m 6,2 km/h (2 Bft)
09.04.2018 18:00 16,9 C 48 % 1000,8 hPa 0,0 l/m N 0,00 h 93 W/m 0,3 km/h (0 Bft)
09.04.2018 19:00 15,4 C 63 % 1001,2 hPa 0,0 l/m N 0,00 h 27 W/m 1,2 km/h (1 Bft)
09.04.2018 20:00 13,6 C 68 % 1001,5 hPa 0,0 l/m N 0,00 h 0 W/m 0,0 km/h (0 Bft)
09.04.2018 21:00 12,8 C 69 % 1001,7 hPa 0,0 l/m N 0,00 h 0 W/m 0,0 km/h (0 Bft)
09.04.2018 22:00 11,4 C 73 % 1001,4 hPa 0,0 l/m N 0,00 h 0 W/m 0,0 km/h (0 Bft)
09.04.2018 23:00 10,2 C 77 % 1001,2 hPa 0,0 l/m W-NW 0,00 h 0 W/m 0,9 km/h (0 Bft)
10.04.2018 00:00 9,3 C 80 % 1001,5 hPa 0,0 l/m N 0,00 h 0 W/m 0,0 km/h (0 Bft)
10.04.2018 01:00 8,4 C 82 % 1001,5 hPa 0,0 l/m N 0,00 h 0 W/m 0,0 km/h (0 Bft)
10.04.2018 02:00 7,7 C 85 % 1001,5 hPa 0,0 l/m N 0,00 h 0 W/m 0,5 km/h (0 Bft)
10.04.2018 03:00 7,3 C 87 % 1001,5 hPa 0,0 l/m N 0,00 h 0 W/m 0,0 km/h (0 Bft)
10.04.2018 04:00 7,4 C 89 % 1001,5 hPa 0,0 l/m N 0,00 h 0 W/m 0,0 km/h (0 Bft)
10.04.2018 05:00 7,2 C 89 % 1000,9 hPa 0,0 l/m N 0,00 h 0 W/m 0,0 km/h (0 Bft)
10.04.2018 06:00 6,7 C 90 % 1000,2 hPa 0,0 l/m W-NW 0,08 h 10 W/m 0,9 km/h (0 Bft)
10.04.2018 07:00 7,3 C 92 % 1000,7 hPa 0,0 l/m N 0,08 h 58 W/m 0,1 km/h (0 Bft)
10.04.2018 08:00 9,9 C 89 % 1000,8 hPa 0,0 l/m N 0,17 h 157 W/m 0,0 km/h (0 Bft)
10.04.2018 09:00 11,9 C 81 % 1000,6 hPa 0,0 l/m W-NW 0,75 h 280 W/m 3,1 km/h (1 Bft)
10.04.2018 10:00 14,1 C 73 % 1000,3 hPa 0,0 l/m O-NO 0,92 h 458 W/m 12,6 km/h (3 Bft)
10.04.2018 11:00 16,0 C 66 % 1000,3 hPa 0,0 l/m O-NO 1,00 h 668 W/m 12,1 km/h (2 Bft)
10.04.2018 12:00 17,8 C 60 % 999,8 hPa 0,0 l/m O 1,00 h 729 W/m 12,4 km/h (3 Bft)
10.04.2018 13:00 19,3 C 55 % 999,3 hPa 0,0 l/m O-NO 1,00 h 761 W/m 12,6 km/h (3 Bft)
10.04.2018 14:00 20,0 C 45 % 999,0 hPa 0,0 l/m W-SW 1,00 h 727 W/m 9,3 km/h (2 Bft)
10.04.2018 15:00 20,5 C 41 % 998,7 hPa 0,0 l/m O-SO 0,92 h 636 W/m 6,1 km/h (2 Bft)
10.04.2018 16:00 19,9 C 40 % 998,5 hPa 0,0 l/m O-SO 0,00 h 186 W/m 6,0 km/h (2 Bft)
10.04.2018 17:00 18,7 C 47 % 998,6 hPa 0,0 l/m W-SW 0,50 h 196 W/m 18,2 km/h (3 Bft)
10.04.2018 18:00 15,2 C 66 % 999,7 hPa 0,0 l/m W-NW 1,00 h 206 W/m 29,0 km/h (5 Bft)
10.04.2018 19:00 12,3 C 74 % 1001,3 hPa 0,0 l/m W-NW 0,42 h 50 W/m 20,4 km/h (4 Bft)
10.04.2018 20:00 9,6 C 81 % 1002,4 hPa 0,0 l/m NW 0,00 h 0 W/m 15,8 km/h (3 Bft)
10.04.2018 21:00 8,6 C 84 % 1003,3 hPa 0,0 l/m NW 0,00 h 0 W/m 5,0 km/h (1 Bft)
10.04.2018 22:00 8,0 C 84 % 1003,8 hPa 0,0 l/m N 0,00 h 0 W/m 0,4 km/h (0 Bft)
10.04.2018 23:00 7,4 C 85 % 1003,8 hPa 0,0 l/m N 0,00 h 0 W/m 0,0 km/h (0 Bft)
11.04.2018 00:00 6,7 C 87 % 1004,3 hPa 0,0 l/m N 0,00 h 0 W/m 0,0 km/h (0 Bft)
11.04.2018 01:00 6,1 C 88 % 1004,4 hPa 0,0 l/m N 0,00 h 0 W/m 0,0 km/h (0 Bft)
11.04.2018 02:00 5,6 C 89 % 1004,6 hPa 0,0 l/m N 0,00 h 0 W/m 0,0 km/h (0 Bft)
11.04.2018 03:00 5,0 C 90 % 1004,6 hPa 0,0 l/m N 0,00 h 0 W/m 0,0 km/h (0 Bft)
11.04.2018 04:00 4,3 C 91 % 1004,4 hPa 0,0 l/m NW 0,00 h 0 W/m 1,3 km/h (1 Bft)
11.04.2018 05:00 3,7 C 92 % 1004,5 hPa 0,0 l/m N 0,00 h 0 W/m 0,0 km/h (0 Bft)
11.04.2018 06:00 3,1 C 92 % 1004,6 hPa 0,0 l/m N 0,00 h 8 W/m 0,0 km/h (0 Bft)
11.04.2018 07:00 3,1 C 94 % 1004,8 hPa 0,0 l/m N 0,33 h 64 W/m 0,0 km/h (0 Bft)
11.04.2018 08:00 5,7 C 93 % 1004,8 hPa 0,0 l/m NW 0,75 h 197 W/m 4,4 km/h (1 Bft)
11.04.2018 09:00 9,0 C 83 % 1004,7 hPa 0,0 l/m N 1,00 h 413 W/m 0,3 km/h (0 Bft)
11.04.2018 10:00 11,8 C 72 % 1004,3 hPa 0,0 l/m NW 0,92 h 539 W/m 2,9 km/h (1 Bft)
11.04.2018 11:00 14,1 C 64 % 1003,7 hPa 0,0 l/m NO 1,00 h 692 W/m 8,2 km/h (2 Bft)
11.04.2018 12:00 15,8 C 57 % 1003,1 hPa 0,0 l/m O-NO 0,83 h 725 W/m 14,5 km/h (3 Bft)
11.04.2018 13:00 17,2 C 49 % 1002,5 hPa 0,0 l/m O-NO 0,92 h 770 W/m 18,6 km/h (3 Bft)
11.04.2018 14:00 17,8 C 47 % 1002,3 hPa 0,0 l/m NO 1,00 h 823 W/m 19,2 km/h (3 Bft)
11.04.2018 15:00 18,4 C 46 % 1001,7 hPa 0,0 l/m O-NO 0,92 h 625 W/m 20,1 km/h (4 Bft)
11.04.2018 16:00 18,6 C 44 % 1001,2 hPa 0,0 l/m O-NO 1,00 h 526 W/m 22,4 km/h (4 Bft)
11.04.2018 17:00 17,8 C 47 % 1000,9 hPa 0,0 l/m O 0,33 h 254 W/m 19,7 km/h (3 Bft)
11.04.2018 18:00 16,4 C 53 % 1000,7 hPa 0,0 l/m O-NO 0,00 h 95 W/m 16,5 km/h (3 Bft)
11.04.2018 19:00 15,3 C 58 % 1000,4 hPa 0,0 l/m O-NO 0,08 h 31 W/m 14,4 km/h (3 Bft)
11.04.2018 20:00 14,1 C 63 % 1000,0 hPa 0,0 l/m O-NO 0,00 h 5 W/m 10,5 km/h (2 Bft)
11.04.2018 21:00 13,5 C 64 % 999,4 hPa 0,0 l/m O-NO 0,00 h 0 W/m 9,9 km/h (2 Bft)
11.04.2018 22:00 12,9 C 67 % 998,9 hPa 0,0 l/m O-NO 0,00 h 0 W/m 5,9 km/h (2 Bft)
11.04.2018 23:00 12,5 C 72 % 998,1 hPa 0,0 l/m O-NO 0,00 h 0 W/m 5,5 km/h (1 Bft)
12.04.2018 00:00 11,6 C 78 % 997,6 hPa 0,0 l/m N 0,00 h 0 W/m 0,1 km/h (0 Bft)
12.04.2018 01:00 11,0 C 81 % 997,1 hPa 0,0 l/m N 0,00 h 0 W/m 0,3 km/h (0 Bft)
12.04.2018 02:00 10,4 C 82 % 996,2 hPa 0,0 l/m N 0,00 h 0 W/m 0,0 km/h (0 Bft)
12.04.2018 03:00 9,6 C 83 % 996,0 hPa 0,0 l/m N 0,00 h 0 W/m 0,0 km/h (0 Bft)
12.04.2018 04:00 8,6 C 86 % 995,3 hPa 0,0 l/m N 0,00 h 0 W/m 0,0 km/h (0 Bft)
12.04.2018 05:00 8,0 C 88 % 995,4 hPa 0,0 l/m N 0,00 h 0 W/m 0,0 km/h (0 Bft)
12.04.2018 06:00 7,3 C 89 % 995,8 hPa 0,0 l/m N 0,08 h 10 W/m 0,1 km/h (0 Bft)
12.04.2018 07:00 8,1 C 85 % 996,1 hPa 0,0 l/m N 0,92 h 88 W/m 1,1 km/h (0 Bft)
12.04.2018 08:00 11,7 C 72 % 995,8 hPa 0,0 l/m S-SW 0,83 h 202 W/m 8,4 km/h (2 Bft)
12.04.2018 09:00 13,2 C 66 % 996,8 hPa 0,0 l/m S-SW 0,17 h 221 W/m 16,0 km/h (3 Bft)
12.04.2018 10:00 13,9 C 63 % 997,6 hPa 0,0 l/m S-SW 0,00 h 261 W/m 13,3 km/h (3 Bft)
12.04.2018 11:00 15,4 C 56 % 998,0 hPa 0,0 l/m SW 0,92 h 517 W/m 20,8 km/h (4 Bft)
12.04.2018 12:00 17,3 C 48 % 997,9 hPa 0,0 l/m SW 0,83 h 526 W/m 23,7 km/h (4 Bft)
12.04.2018 13:00 17,1 C 44 % 998,1 hPa 0,0 l/m S-SW 0,00 h 326 W/m 25,2 km/h (4 Bft)
12.04.2018 14:00 16,5 C 45 % 998,7 hPa 0,0 l/m W-SW 0,33 h 430 W/m 26,6 km/h (4 Bft)
12.04.2018 15:00 16,4 C 41 % 998,6 hPa 0,0 l/m SW 0,42 h 353 W/m 26,6 km/h (4 Bft)
12.04.2018 16:00 16,5 C 40 % 998,5 hPa 0,0 l/m SW 0,75 h 393 W/m 28,0 km/h (4 Bft)
12.04.2018 17:00 16,5 C 40 % 998,5 hPa 0,0 l/m S-SW 0,58 h 289 W/m 22,1 km/h (4 Bft)
12.04.2018 18:00 15,4 C 41 % 998,4 hPa 0,0 l/m S-SW 0,42 h 139 W/m 12,1 km/h (2 Bft)
12.04.2018 19:00 15,3 C 44 % 998,1 hPa 0,0 l/m N 1,00 h 59 W/m 1,1 km/h (0 Bft)
12.04.2018 20:00 12,5 C 54 % 998,5 hPa 0,0 l/m N 0,00 h 7 W/m 0,0 km/h (0 Bft)
12.04.2018 21:00 10,3 C 61 % 998,6 hPa 0,0 l/m N 0,00 h 0 W/m 0,0 km/h (0 Bft)
12.04.2018 22:00 9,4 C 68 % 998,6 hPa 0,0 l/m N 0,00 h 0 W/m 0,1 km/h (0 Bft)
12.04.2018 23:00 8,6 C 72 % 998,4 hPa 0,0 l/m N 0,00 h 0 W/m 0,0 km/h (0 Bft)
13.04.2018 00:00 7,8 C 75 % 998,9 hPa 0,0 l/m N 0,00 h 0 W/m 0,3 km/h (0 Bft)
13.04.2018 01:00 7,4 C 77 % 999,0 hPa 0,0 l/m N 0,00 h 0 W/m 0,0 km/h (0 Bft)
13.04.2018 02:00 7,1 C 77 % 999,2 hPa 0,0 l/m N 0,00 h 0 W/m 0,0 km/h (0 Bft)
13.04.2018 03:00 6,5 C 76 % 999,6 hPa 0,0 l/m N 0,00 h 0 W/m 0,0 km/h (0 Bft)
13.04.2018 04:00 5,7 C 78 % 999,8 hPa 0,0 l/m S-SW 0,00 h 0 W/m 0,0 km/h (0 Bft)
13.04.2018 05:00 4,8 C 82 % 1000,6 hPa 0,0 l/m N 0,00 h 0 W/m 1,1 km/h (0 Bft)
13.04.2018 06:00 4,4 C 84 % 1001,3 hPa 0,0 l/m N 0,00 h 7 W/m 0,3 km/h (0 Bft)
13.04.2018 07:00 5,3 C 86 % 1002,1 hPa 0,0 l/m SW 0,00 h 44 W/m 6,7 km/h (2 Bft)
13.04.2018 08:00 8,3 C 76 % 1002,7 hPa 0,0 l/m SW 0,00 h 101 W/m 13,8 km/h (3 Bft)
13.04.2018 09:00 10,2 C 75 % 1003,3 hPa 0,0 l/m W-SW 0,42 h 288 W/m 33,8 km/h (5 Bft)
13.04.2018 10:00 12,3 C 69 % 1003,9 hPa 0,0 l/m W-SW 0,83 h 493 W/m 33,9 km/h (5 Bft)
13.04.2018 11:00 13,5 C 65 % 1005,0 hPa 0,0 l/m W 0,75 h 626 W/m 33,8 km/h (5 Bft)
13.04.2018 12:00 14,3 C 62 % 1006,0 hPa 0,0 l/m W-SW 1,00 h 757 W/m 35,8 km/h (5 Bft)
13.04.2018 13:00 13,6 C 63 % 1007,0 hPa 0,0 l/m W-NW 0,00 h 299 W/m 27,8 km/h (4 Bft)
13.04.2018 14:00 12,1 C 70 % 1008,6 hPa 0,0 l/m W-NW 0,42 h 427 W/m 27,8 km/h (4 Bft)
13.04.2018 15:00 13,1 C 69 % 1009,6 hPa 0,0 l/m W-NW 0,92 h 678 W/m 22,5 km/h (4 Bft)
13.04.2018 16:00 14,5 C 65 % 1010,0 hPa 0,0 l/m N-NO 1,00 h 573 W/m 18,6 km/h (3 Bft)
13.04.2018 17:00 14,7 C 63 % 1010,3 hPa 0,0 l/m N-NO 0,83 h 336 W/m 13,1 km/h (3 Bft)
13.04.2018 18:00 14,1 C 64 % 1010,8 hPa 0,0 l/m NO 0,50 h 125 W/m 9,3 km/h (2 Bft)
13.04.2018 19:00 12,3 C 71 % 1011,8 hPa 0,0 l/m N 0,00 h 16 W/m 0,9 km/h (0 Bft)
13.04.2018 20:00 10,6 C 81 % 1012,9 hPa 0,0 l/m NO 0,00 h 5 W/m 3,2 km/h (1 Bft)
13.04.2018 21:00 9,2 C 86 % 1013,9 hPa 0,0 l/m NO 0,00 h 0 W/m 1,5 km/h (1 Bft)
13.04.2018 22:00 8,3 C 89 % 1014,6 hPa 0,0 l/m N 0,00 h 0 W/m 1,5 km/h (1 Bft)
13.04.2018 23:00 7,1 C 91 % 1014,9 hPa 0,0 l/m N 0,00 h 0 W/m 0,0 km/h (0 Bft)
14.04.2018 00:00 6,2 C 94 % 1015,4 hPa 0,0 l/m N 0,00 h 0 W/m 0,0 km/h (0 Bft)
14.04.2018 01:00 5,9 C 94 % 1015,8 hPa 0,0 l/m N 0,00 h 0 W/m 0,0 km/h (0 Bft)
14.04.2018 02:00 5,1 C 95 % 1016,2 hPa 0,0 l/m N 0,00 h 0 W/m 0,0 km/h (0 Bft)
14.04.2018 03:00 4,4 C 95 % 1016,3 hPa 0,0 l/m N 0,00 h 0 W/m 0,0 km/h (0 Bft)
14.04.2018 04:00 3,7 C 94 % 1016,5 hPa 0,0 l/m N 0,00 h 0 W/m 0,0 km/h (0 Bft)
14.04.2018 05:00 3,2 C 94 % 1016,7 hPa 0,0 l/m N 0,00 h 0 W/m 0,0 km/h (0 Bft)
14.04.2018 06:00 2,5 C 94 % 1016,9 hPa 0,0 l/m N 0,08 h 12 W/m 0,0 km/h (0 Bft)
14.04.2018 07:00 2,9 C 95 % 1017,7 hPa 0,0 l/m N 0,42 h 83 W/m 0,1 km/h (0 Bft)
14.04.2018 08:00 5,5 C 94 % 1018,4 hPa 0,0 l/m N 0,83 h 218 W/m 0,0 km/h (0 Bft)
14.04.2018 09:00 9,4 C 83 % 1018,8 hPa 0,0 l/m N 1,00 h 391 W/m 0,4 km/h (0 Bft)
14.04.2018 10:00 12,5 C 63 % 1019,0 hPa 0,0 l/m SO 1,00 h 504 W/m 4,0 km/h (1 Bft)
14.04.2018 11:00 15,1 C 51 % 1018,5 hPa 0,0 l/m O-SO 1,00 h 667 W/m 5,1 km/h (1 Bft)
14.04.2018 12:00 16,6 C 47 % 1018,1 hPa 0,0 l/m O 1,00 h 666 W/m 10,2 km/h (2 Bft)
14.04.2018 13:00 17,9 C 45 % 1017,7 hPa 0,0 l/m O 1,00 h 784 W/m 14,0 km/h (3 Bft)
14.04.2018 14:00 19,1 C 41 % 1017,4 hPa 0,0 l/m O-NO 1,00 h 751 W/m 15,8 km/h (3 Bft)
14.04.2018 15:00 19,3 C 39 % 1017,1 hPa 0,0 l/m O-NO 1,00 h 560 W/m 14,5 km/h (3 Bft)
14.04.2018 16:00 19,1 C 38 % 1016,2 hPa 0,0 l/m O-NO 0,83 h 487 W/m 15,7 km/h (3 Bft)
14.04.2018 17:00 18,6 C 39 % 1015,8 hPa 0,0 l/m O-SO 0,50 h 254 W/m 15,0 km/h (3 Bft)
14.04.2018 18:00 17,7 C 42 % 1015,4 hPa 0,0 l/m NO 0,50 h 151 W/m 12,0 km/h (2 Bft)
14.04.2018 19:00 16,4 C 46 % 1015,4 hPa 0,0 l/m O-NO 0,00 h 38 W/m 7,6 km/h (2 Bft)
14.04.2018 20:00 14,8 C 53 % 1015,3 hPa 0,0 l/m O-NO 0,00 h 5 W/m 6,7 km/h (2 Bft)
14.04.2018 21:00 13,1 C 65 % 1015,6 hPa 0,0 l/m NO 0,00 h 0 W/m 2,0 km/h (1 Bft)
14.04.2018 22:00 12,7 C 67 % 1015,2 hPa 0,0 l/m NO 0,00 h 0 W/m 6,0 km/h (2 Bft)
14.04.2018 23:00 11,2 C 73 % 1014,7 hPa 0,0 l/m N 0,00 h 0 W/m 0,8 km/h (0 Bft)
15.04.2018 00:00 10,2 C 76 % 1014,1 hPa 0,0 l/m NO 0,00 h 0 W/m 0,9 km/h (0 Bft)
15.04.2018 01:00 9,6 C 79 % 1013,5 hPa 0,0 l/m N 0,00 h 0 W/m 0,8 km/h (0 Bft)
15.04.2018 02:00 9,0 C 81 % 1013,1 hPa 0,0 l/m N 0,00 h 0 W/m 0,0 km/h (0 Bft)
15.04.2018 03:00 7,9 C 83 % 1013,0 hPa 0,0 l/m N 0,00 h 0 W/m 0,0 km/h (0 Bft)
15.04.2018 04:00 7,2 C 84 % 1012,9 hPa 0,0 l/m N 0,00 h 0 W/m 0,0 km/h (0 Bft)
15.04.2018 05:00 6,3 C 85 % 1012,5 hPa 0,0 l/m N 0,00 h 0 W/m 0,0 km/h (0 Bft)
15.04.2018 06:00 5,4 C 87 % 1012,5 hPa 0,0 l/m N 0,00 h 10 W/m 0,0 km/h (0 Bft)
15.04.2018 07:00 4,9 C 89 % 1012,0 hPa 0,0 l/m N 0,00 h 50 W/m 0,0 km/h (0 Bft)
15.04.2018 08:00 6,0 C 91 % 1012,1 hPa 0,0 l/m N 0,00 h 131 W/m 0,4 km/h (0 Bft)
15.04.2018 09:00 8,0 C 87 % 1011,8 hPa 0,0 l/m N 0,00 h 190 W/m 0,0 km/h (0 Bft)
15.04.2018 10:00 10,3 C 82 % 1011,2 hPa 0,0 l/m N 0,00 h 210 W/m 0,5 km/h (0 Bft)
15.04.2018 11:00 11,8 C 76 % 1011,2 hPa 0,0 l/m N 0,42 h 363 W/m 0,5 km/h (0 Bft)
15.04.2018 12:00 13,5 C 66 % 1010,9 hPa 0,0 l/m NO 0,25 h 363 W/m 4,3 km/h (1 Bft)
15.04.2018 13:00 15,6 C 60 % 1010,2 hPa 0,0 l/m O-NO 1,00 h 753 W/m 6,1 km/h (2 Bft)
15.04.2018 14:00 16,8 C 57 % 1009,1 hPa 0,0 l/m NO 0,75 h 511 W/m 7,9 km/h (2 Bft)
15.04.2018 15:00 17,5 C 56 % 1008,7 hPa 0,0 l/m O 0,83 h 473 W/m 6,7 km/h (2 Bft)
15.04.2018 16:00 17,6 C 56 % 1007,9 hPa 0,0 l/m O 0,67 h 346 W/m 8,5 km/h (2 Bft)
15.04.2018 17:00 17,6 C 54 % 1007,6 hPa 0,0 l/m O 0,42 h 229 W/m 8,3 km/h (2 Bft)
15.04.2018 18:00 17,1 C 57 % 1007,8 hPa 0,0 l/m O 0,00 h 101 W/m 7,0 km/h (2 Bft)
15.04.2018 19:00 16,3 C 63 % 1008,1 hPa 0,0 l/m O 0,00 h 22 W/m 2,4 km/h (1 Bft)
15.04.2018 20:00 15,1 C 70 % 1008,7 hPa 0,0 l/m N 0,00 h 0 W/m 0,0 km/h (0 Bft)
15.04.2018 21:00 14,1 C 75 % 1009,3 hPa 0,0 l/m N 0,00 h 0 W/m 0,4 km/h (0 Bft)
15.04.2018 22:00 13,2 C 77 % 1009,2 hPa 0,0 l/m O-SO 0,00 h 0 W/m 4,8 km/h (1 Bft)
15.04.2018 23:00 12,6 C 74 % 1008,8 hPa 0,0 l/m N 0,00 h 0 W/m 0,8 km/h (0 Bft)
Min-Datum _ 14.04.18 12.04.18 12.04.18 - - - - 09.04.18
_ Min-Zeit 07:05 17:30 05:05 - - - - 00:00
Minimum _ 2,1 C 36 % 995,1 hPa - - - - 0,0 km/h (0 Bft)
Max-Datum _ 10.04.18 14.04.18 14.04.18 09.04.18 - 09.04.18 13.04.18 13.04.18
_ Max-Zeit 15:55 07:50 10:30 00:00 - 13:00 12:25 11:35
Maximum _ 21,2 C 96 % 1019,1 hPa 0,0 l/m - 0,08 h 1100 W/m 43,5 km/h
W (6 Bft)
Durchschnitt _ 11,6 C 70 % 1005,2 hPa #0,0 l/m O-NO #47:30 h 309 W/m 6,6 km/h (2 Bft)